Mount Air, Ohio
Current Conditions -  °F | °C
As of 11:53 PM on Friday 19 Dec 2014 (Local Time) from KOSU Reporting Station
Overcast Overcast  
Wind Chill: 24°   Ceiling: 1800
Heat Index: 29°   Visibility: 10mi
Dew Point: 22°   Wind: 5mph
Humidity: 75%   Direction: 60°ENE
Pressure: 30.25"   Gusts: NA
Location:  40.0994°N, 83.0166°W
Report Text: KOSU 200453Z AUTO 06004KT 10SM OVC018 M02/M06 A3025 RMK AO2 SLP254 T10171056 410111022
Loading
Personal Weather Stations






























Interactive Weather Map New forecast layout! Learn more

10-Day Weather Forecast

Advertisements
Track Severe Weather on mobile